Naha City, Japan

5:02 PM JST on July 08, 2015 (GMT +0900)
Kadena Air Base | | Change Station
CLOSE
Current Station
Airport
Location: Okinawa,
Elevation: 148 ft
Nearby Weather Stations

Elev 148 ft 26.36 °N, 127.77 °E | Updated 4 minutes ago

Mostly Cloudy
Mostly Cloudy
87 °F
Feels Like 109 °F
N
21
Wind Variable Wind from ENE
Gusts 26 mph

Today
High -- | Low -- °F
--% Chance of Precip.
Yesterday
High -- | Low -- °F
Precip. -- in
5:43 AM 7:25 PM
Waning Gibbous, 56% visible
Pressure 29.65 in
Visibility 7.0 miles
Clouds Mostly Cloudy 1800 ft
Mostly Cloudy 2400 ft
Heat Index 109 °F
Dew Point 84 °F
Humidity 90%
Rainfall 0.01 in
Snow Depth Not available.
UV 2 out of 12
Pollen Not available.
Air Quality Not available.
Flu Activity Not available.
METAR RODN 080758Z AUTO 06018G23KT 7SM BKN018 BKN024 31/29 A2964 RMK AO2 PK WND 04026/32 DZB10E17 SLP041 P0000 T03050287

More Conditions Fewer Conditions

Pressure 29.65 in
Visibility 7.0 miles
Clouds Mostly Cloudy 1800 ft
Mostly Cloudy 2400 ft
Heat Index 109 °F
Dew Point 84 °F
Humidity 90%
Rainfall 0.01 in
Snow Depth Not available.
UV 2 out of 12
Pollen Not available.
Air Quality Not available.
Flu Activity Not available.
METAR RODN 080758Z AUTO 06018G23KT 7SM BKN018 BKN024 31/29 A2964 RMK AO2 PK WND 04026/32 DZB10E17 SLP041 P0000 T03050287

More Conditions Fewer Conditions

10-Day Weather Forecast

×

Almanac

Astronomy

Jul. 08, 2015 Rise Set
Actual Time
Civil Twilight
Nautical Twilight
Astronomical Twilight
Moon
Length of Visible Light
Length of Day
Tomorrow will be .
, % of the Moon is Illuminated

Today's Extremes

Country Highs Country Lows

Community

WunderPhotos

Upload Photos

1,836,064 photos uploaded!

WunderBlogs® & News

Nearby

Air Quality

  Air Quality AQ Index Pollutant
Not available.

Snow Depth

Station Depth Elevation

Earthquake Activity

City Distance Mag. Time & Date
Minimum magnitude displayed is 2.5.

Coastal Water Temperatures

Place Temperature

Stations

Nearby Weather Stations

Station Location Temp. Windchill Dew Point Humidity Wind Precip. Elev Updated Type